Time;durP1;ratioP1;P1;durP2;ratioP2;P2;SDS_P1;SDS_P2;PMS_P1;PMS_P2;Temp;Humidity;BMP_temperature;BMP_pressure;BME280_temperature;BME280_humidity;BME280_pressure;Samples;Min_cycle;Max_cycle;Signal;HPM_P1;HPM_P2
2022/07/07 00:02:18;;;;;;;;;;;15.60;99.90;;;;;;5091944;28;19920;-57
2022/07/07 00:04:46;;;;;;;;;;;15.70;99.90;;;;;;5091962;28;19920;-58
2022/07/07 00:07:13;;;;;;;;;;;15.60;99.90;;;;;;5092574;28;20421;-57
2022/07/07 00:09:41;;;;;;;;;;;15.70;99.90;;;;;;5092039;28;19927;-59
2022/07/07 00:12:09;;;;;;;;;;;15.60;99.90;;;;;;5091954;28;19927;-58
2022/07/07 00:14:36;;;;;;;;;;;15.60;99.90;;;;;;5089505;28;19924;-58
2022/07/07 00:17:04;;;;;;;;;;;15.60;99.90;;;;;;5091093;28;19924;-59
2022/07/07 00:19:31;;;;;;;;;;;15.50;99.90;;;;;;5091354;28;19927;-59
2022/07/07 00:21:59;;;;;;;;;;;15.40;99.90;;;;;;5091561;28;20371;-56
2022/07/07 00:24:26;;;;;;;;;;;15.50;99.90;;;;;;5091861;28;19920;-57
2022/07/07 00:26:54;;;;;;;;;;;15.40;99.90;;;;;;5091566;28;19924;-58
2022/07/07 00:29:21;;;;;;;;;;;15.40;99.90;;;;;;5090948;28;19939;-56
2022/07/07 00:31:48;;;;;;;;;;;15.30;99.90;;;;;;5073605;28;19926;-58
2022/07/07 00:34:16;;;;;;;;;;;15.30;99.90;;;;;;5091298;28;19927;-57
2022/07/07 00:36:44;;;;;;;;;;;15.30;99.90;;;;;;5090381;27;19943;-57
2022/07/07 00:39:12;;;;;;;;;;;15.20;99.90;;;;;;5073363;28;20261;-58
2022/07/07 00:41:39;;;;;;;;;;;15.20;99.90;;;;;;5091266;28;19920;-58
2022/07/07 00:44:11;;;;;;;;;;;15.20;99.90;;;;;;5089898;28;20429;-59
2022/07/07 00:46:42;;;;;;;;;;;15.20;99.90;;;;;;5090017;28;20355;-58
2022/07/07 00:49:12;;;;;;;;;;;15.10;99.90;;;;;;5090991;28;19920;-58
2022/07/07 00:51:41;;;;;;;;;;;15.10;99.90;;;;;;5091311;28;20367;-58
2022/07/07 00:54:08;;;;;;;;;;;15.10;99.90;;;;;;5091066;28;19920;-58
2022/07/07 00:56:37;;;;;;;;;;;14.90;99.90;;;;;;5090819;28;20386;-58
2022/07/07 00:59:08;;;;;;;;;;;14.80;99.90;;;;;;5090707;28;19924;-58
2022/07/07 01:01:39;;;;;;;;;;;14.80;99.90;;;;;;5089960;28;20375;-58
2022/07/07 01:04:08;;;;;;;;;;;14.60;99.90;;;;;;5087364;28;19920;-57
2022/07/07 01:06:35;;;;;;;;;;;14.60;99.90;;;;;;5092610;28;19920;-56
2022/07/07 01:09:03;;;;;;;;;;;14.50;99.90;;;;;;5090585;28;20523;-57
2022/07/07 01:11:52;;;;;;;;;;;14.50;99.90;;;;;;5089339;28;19927;-56
2022/07/07 01:14:20;;;;;;;;;;;14.40;99.90;;;;;;5090284;28;19920;-58
2022/07/07 01:16:48;;;;;;;;;;;14.30;99.90;;;;;;5090540;28;19920;-58
2022/07/07 01:19:16;;;;;;;;;;;14.30;99.90;;;;;;5089920;28;20497;-58
2022/07/07 01:22:02;;;;;;;;;;;14.40;99.90;;;;;;5090665;28;19978;-57
2022/07/07 01:24:30;;;;;;;;;;;14.30;99.90;;;;;;5090283;28;19920;-57
2022/07/07 01:27:09;;;;;;;;;;;14.30;99.90;;;;;;5089132;28;20439;-56
2022/07/07 01:29:47;;;;;;;;;;;14.30;99.90;;;;;;5090026;28;19920;-56
2022/07/07 01:32:14;;;;;;;;;;;14.30;99.90;;;;;;5095641;28;19927;-57
2022/07/07 01:34:43;;;;;;;;;;;14.30;99.90;;;;;;5093431;28;19927;-57
2022/07/07 01:37:11;;;;;;;;;;;14.30;99.90;;;;;;5093817;28;19920;-56
2022/07/07 01:39:39;;;;;;;;;;;14.20;99.90;;;;;;5075259;28;19920;-57
2022/07/07 01:42:07;;;;;;;;;;;14.20;99.90;;;;;;5093012;28;20364;-56
2022/07/07 01:44:35;;;;;;;;;;;14.20;99.90;;;;;;5093411;28;20439;-57
2022/07/07 01:47:03;;;;;;;;;;;14.20;99.90;;;;;;5108538;28;19920;-56
2022/07/07 01:49:31;;;;;;;;;;;14.20;99.90;;;;;;5113526;28;19919;-56
2022/07/07 01:51:59;;;;;;;;;;;14.20;99.90;;;;;;5112314;28;19923;-56
2022/07/07 01:54:27;;;;;;;;;;;14.20;99.90;;;;;;5113604;28;19974;-56
2022/07/07 01:56:55;;;;;;;;;;;14.10;99.90;;;;;;5113612;28;20459;-57
2022/07/07 01:59:22;;;;;;;;;;;14.10;99.90;;;;;;5112532;28;20457;-56
2022/07/07 02:01:50;;;;;;;;;;;14.10;99.90;;;;;;5113404;28;20278;-55
2022/07/07 02:04:17;;;;;;;;;;;14.10;99.90;;;;;;5113458;28;19927;-56
2022/07/07 02:06:45;;;;;;;;;;;14.00;99.90;;;;;;5113345;28;20286;-56
2022/07/07 02:09:12;;;;;;;;;;;14.00;99.90;;;;;;5111891;28;19919;-56
2022/07/07 02:11:40;;;;;;;;;;;14.00;99.90;;;;;;5112630;28;19942;-55
2022/07/07 02:14:08;;;;;;;;;;;14.00;99.90;;;;;;5112856;28;19920;-55
2022/07/07 02:16:36;;;;;;;;;;;13.90;99.90;;;;;;5113238;28;19927;-56
2022/07/07 02:19:06;;;;;;;;;;;14.00;99.90;;;;;;5113561;28;19926;-56
2022/07/07 02:21:34;;;;;;;;;;;13.90;99.90;;;;;;5113097;28;19919;-55
2022/07/07 02:24:01;;;;;;;;;;;13.90;99.90;;;;;;5113150;28;19920;-55
2022/07/07 02:26:31;;;;;;;;;;;13.90;99.90;;;;;;5112996;28;19926;-55
2022/07/07 02:28:58;;;;;;;;;;;13.90;99.90;;;;;;5113665;28;19935;-55
2022/07/07 02:31:25;;;;;;;;;;;13.90;99.90;;;;;;5112926;28;19920;-59
2022/07/07 02:33:53;;;;;;;;;;;13.90;99.90;;;;;;5112938;28;19936;-58
2022/07/07 02:36:21;;;;;;;;;;;13.80;99.90;;;;;;5112890;28;19920;-58
2022/07/07 02:38:50;;;;;;;;;;;13.90;99.90;;;;;;5111496;28;19924;-58
2022/07/07 02:41:19;;;;;;;;;;;13.80;99.90;;;;;;5111647;28;19919;-58
2022/07/07 02:43:47;;;;;;;;;;;13.80;99.90;;;;;;5112623;28;19920;-58
2022/07/07 02:46:14;;;;;;;;;;;13.80;99.90;;;;;;5111589;28;20032;-58
2022/07/07 02:48:42;;;;;;;;;;;13.80;99.90;;;;;;5112617;28;19927;-58
2022/07/07 02:51:09;;;;;;;;;;;13.80;99.90;;;;;;5112406;28;19919;-58
2022/07/07 02:53:37;;;;;;;;;;;13.70;99.90;;;;;;5112632;28;19927;-58
2022/07/07 02:56:04;;;;;;;;;;;13.70;99.90;;;;;;5112456;28;20294;-60
2022/07/07 02:58:32;;;;;;;;;;;13.70;99.90;;;;;;5112652;28;19927;-58
2022/07/07 03:01:00;;;;;;;;;;;13.70;99.90;;;;;;5112626;28;20366;-58
2022/07/07 03:03:27;;;;;;;;;;;13.60;99.90;;;;;;5111867;28;20391;-58
2022/07/07 03:05:56;;;;;;;;;;;13.70;99.90;;;;;;5112708;28;20523;-58
2022/07/07 03:08:23;;;;;;;;;;;13.70;99.90;;;;;;5112693;28;19920;-58
2022/07/07 03:10:58;;;;;;;;;;;13.70;99.90;;;;;;5112439;28;19923;-60
2022/07/07 03:13:25;;;;;;;;;;;13.70;99.90;;;;;;5112381;28;19920;-59
2022/07/07 03:15:54;;;;;;;;;;;13.60;99.90;;;;;;5112523;28;20290;-57
2022/07/07 03:18:21;;;;;;;;;;;13.70;99.90;;;;;;5110931;28;19920;-57
2022/07/07 03:20:51;;;;;;;;;;;13.60;99.90;;;;;;5112482;28;20283;-57
2022/07/07 03:23:18;;;;;;;;;;;13.50;99.90;;;;;;5115246;28;19927;-58
2022/07/07 03:25:46;;;;;;;;;;;13.70;99.90;;;;;;5116425;28;19920;-57
2022/07/07 03:28:13;;;;;;;;;;;13.70;99.90;;;;;;5116647;28;19926;-57
2022/07/07 03:30:41;;;;;;;;;;;13.70;99.90;;;;;;5116399;28;19942;-57
2022/07/07 03:33:09;;;;;;;;;;;13.70;99.90;;;;;;5116345;28;19921;-58
2022/07/07 03:35:38;;;;;;;;;;;13.70;99.90;;;;;;5116363;28;19920;-58
2022/07/07 03:38:05;;;;;;;;;;;13.70;99.90;;;;;;5116235;28;19924;-56
2022/07/07 03:40:34;;;;;;;;;;;13.70;99.90;;;;;;5116153;28;19920;-57
2022/07/07 03:43:02;;;;;;;;;;;13.70;99.90;;;;;;5116106;28;19926;-57
2022/07/07 03:45:29;;;;;;;;;;;13.70;99.90;;;;;;5116135;28;19923;-57
2022/07/07 03:47:57;;;;;;;;;;;13.70;99.90;;;;;;5116109;28;20279;-58
2022/07/07 03:50:24;;;;;;;;;;;13.70;99.90;;;;;;5116015;28;19934;-59
2022/07/07 03:52:52;;;;;;;;;;;13.70;99.90;;;;;;5115957;28;19920;-56
2022/07/07 03:55:19;;;;;;;;;;;13.70;99.90;;;;;;5115954;28;19989;-57
2022/07/07 03:57:47;;;;;;;;;;;13.60;99.90;;;;;;5115950;28;19919;-56
2022/07/07 04:00:14;;;;;;;;;;;13.60;99.90;;;;;;5115792;28;19927;-58
2022/07/07 04:02:42;;;;;;;;;;;13.60;99.90;;;;;;5115897;28;19920;-57
2022/07/07 04:05:09;;;;;;;;;;;13.60;99.90;;;;;;5115963;28;19919;-57
2022/07/07 04:07:37;;;;;;;;;;;13.60;99.90;;;;;;5115789;28;19920;-57
2022/07/07 04:10:04;;;;;;;;;;;13.60;99.90;;;;;;5115841;28;19927;-58
2022/07/07 04:12:32;;;;;;;;;;;13.60;99.90;;;;;;5115495;28;19919;-55
2022/07/07 04:14:59;;;;;;;;;;;13.60;99.90;;;;;;5114283;28;19927;-57
2022/07/07 04:17:27;;;;;;;;;;;13.60;99.90;;;;;;5115545;28;19926;-56
2022/07/07 04:19:54;;;;;;;;;;;13.60;99.90;;;;;;5115535;28;19927;-57
2022/07/07 04:22:22;;;;;;;;;;;13.60;99.90;;;;;;5115341;28;19927;-57
2022/07/07 04:24:49;;;;;;;;;;;13.60;99.90;;;;;;5113996;28;19934;-55
2022/07/07 04:27:17;;;;;;;;;;;13.60;99.90;;;;;;5115373;28;19920;-57
2022/07/07 04:29:44;;;;;;;;;;;13.60;99.90;;;;;;5115396;28;19938;-56
2022/07/07 04:32:12;;;;;;;;;;;13.60;99.90;;;;;;5115084;28;20394;-57
2022/07/07 04:34:39;;;;;;;;;;;13.60;99.90;;;;;;5114669;28;20306;-55
2022/07/07 04:37:06;;;;;;;;;;;13.60;99.90;;;;;;5115107;28;20306;-56
2022/07/07 04:39:34;;;;;;;;;;;13.60;99.90;;;;;;5115065;28;19920;-56
2022/07/07 04:42:01;;;;;;;;;;;13.60;99.90;;;;;;5114988;28;19919;-56
2022/07/07 04:44:29;;;;;;;;;;;13.70;99.90;;;;;;5114885;28;19920;-56
2022/07/07 04:46:56;;;;;;;;;;;13.70;99.90;;;;;;5115035;28;19927;-55
2022/07/07 04:49:24;;;;;;;;;;;13.60;99.90;;;;;;5091437;28;20652;-56
2022/07/07 04:51:52;;;;;;;;;;;13.70;99.90;;;;;;5091012;28;19920;-55
2022/07/07 04:54:19;;;;;;;;;;;13.70;99.90;;;;;;5089900;28;19919;-55
2022/07/07 04:56:46;;;;;;;;;;;13.70;99.90;;;;;;5090621;28;20375;-55
2022/07/07 04:59:14;;;;;;;;;;;13.70;99.90;;;;;;5091075;28;19919;-55
2022/07/07 05:01:41;;;;;;;;;;;13.70;99.90;;;;;;5092017;28;19923;-55
2022/07/07 05:04:09;;;;;;;;;;;13.70;99.90;;;;;;5087062;28;19924;-56
2022/07/07 05:06:36;;;;;;;;;;;13.70;99.90;;;;;;5087760;28;19932;-58
2022/07/07 05:09:04;;;;;;;;;;;13.70;99.90;;;;;;5088111;28;19923;-57
2022/07/07 05:11:31;;;;;;;;;;;13.80;99.90;;;;;;5088988;28;19920;-58
2022/07/07 05:13:59;;;;;;;;;;;13.80;99.90;;;;;;5087211;28;20291;-58
2022/07/07 05:16:27;;;;;;;;;;;13.80;99.90;;;;;;5088986;28;20287;-58
2022/07/07 05:18:55;;;;;;;;;;;13.80;99.90;;;;;;5090381;28;19920;-58
2022/07/07 05:21:22;;;;;;;;;;;13.80;99.90;;;;;;5088518;28;19920;-57
2022/07/07 05:23:49;;;;;;;;;;;13.80;99.90;;;;;;5087359;28;19924;-59
2022/07/07 05:26:17;;;;;;;;;;;13.80;99.90;;;;;;5088612;28;19924;-58
2022/07/07 05:28:44;;;;;;;;;;;13.80;99.90;;;;;;5089048;28;19943;-58
2022/07/07 05:31:15;;;;;;;;;;;13.90;99.90;;;;;;5089103;28;19920;-58
2022/07/07 05:33:42;;;;;;;;;;;13.90;99.90;;;;;;5086475;28;19923;-58
2022/07/07 05:36:10;;;;;;;;;;;13.90;99.90;;;;;;5085819;28;19931;-59
2022/07/07 05:38:38;;;;;;;;;;;13.90;99.90;;;;;;5086730;28;19920;-58
2022/07/07 05:41:06;;;;;;;;;;;13.90;99.90;;;;;;5087361;28;20492;-58
2022/07/07 05:43:33;;;;;;;;;;;13.90;99.90;;;;;;5088658;28;19920;-59
2022/07/07 05:46:00;;;;;;;;;;;14.00;99.90;;;;;;5089094;28;19920;-57
2022/07/07 05:48:28;;;;;;;;;;;14.00;99.90;;;;;;5090426;28;19926;-59
2022/07/07 05:50:55;;;;;;;;;;;14.00;99.90;;;;;;5090246;28;19990;-59
2022/07/07 05:53:23;;;;;;;;;;;14.00;99.90;;;;;;5090096;28;19943;-59
2022/07/07 05:55:51;;;;;;;;;;;14.00;99.90;;;;;;5089701;28;19920;-59
2022/07/07 05:58:19;;;;;;;;;;;14.00;99.90;;;;;;5089614;28;20264;-59
2022/07/07 06:00:47;;;;;;;;;;;14.00;99.90;;;;;;5089623;28;19927;-59
2022/07/07 06:03:14;;;;;;;;;;;14.00;99.90;;;;;;5090262;28;20257;-57
2022/07/07 06:05:43;;;;;;;;;;;14.00;99.90;;;;;;5089635;28;19994;-57
2022/07/07 06:08:10;;;;;;;;;;;14.00;99.90;;;;;;5089634;28;19935;-58
2022/07/07 06:10:38;;;;;;;;;;;14.10;99.90;;;;;;5089930;28;19919;-58
2022/07/07 06:13:05;;;;;;;;;;;14.10;99.90;;;;;;5089107;28;19921;-57
2022/07/07 06:15:33;;;;;;;;;;;14.10;99.90;;;;;;5089638;28;19920;-58
2022/07/07 06:18:01;;;;;;;;;;;14.10;99.90;;;;;;5089862;28;19931;-57
2022/07/07 06:20:36;;;;;;;;;;;14.10;99.90;;;;;;5086279;28;19920;-58
2022/07/07 06:23:04;;;;;;;;;;;14.10;99.90;;;;;;5085517;28;19920;-58
2022/07/07 06:25:31;;;;;;;;;;;14.10;99.90;;;;;;5085934;28;19924;-58
2022/07/07 06:27:59;;;;;;;;;;;14.10;99.90;;;;;;5085688;28;19954;-58
2022/07/07 06:30:27;;;;;;;;;;;14.20;99.90;;;;;;5089442;28;19924;-57
2022/07/07 06:32:55;;;;;;;;;;;14.20;99.90;;;;;;5089110;28;20382;-57
2022/07/07 06:35:24;;;;;;;;;;;14.20;99.90;;;;;;5089380;28;19924;-59
2022/07/07 06:37:56;;;;;;;;;;;14.20;99.90;;;;;;5089129;28;19926;-59
2022/07/07 06:40:24;;;;;;;;;;;14.30;99.90;;;;;;5088924;28;19931;-58
2022/07/07 06:42:52;;;;;;;;;;;14.20;99.90;;;;;;5087702;28;19924;-59
2022/07/07 06:45:25;;;;;;;;;;;14.30;99.90;;;;;;5088767;28;19920;-59
2022/07/07 06:47:53;;;;;;;;;;;14.30;99.90;;;;;;5088734;28;19920;-59
2022/07/07 06:50:24;;;;;;;;;;;14.30;99.90;;;;;;5109306;28;20374;-56
2022/07/07 06:52:52;;;;;;;;;;;14.40;99.90;;;;;;5082105;28;19931;-58
2022/07/07 06:55:20;;;;;;;;;;;14.40;99.90;;;;;;5087869;28;19920;-58
2022/07/07 06:57:47;;;;;;;;;;;14.50;99.90;;;;;;5088161;28;20413;-57
2022/07/07 07:00:15;;;;;;;;;;;14.60;99.90;;;;;;5088961;28;20420;-58
2022/07/07 07:02:43;;;;;;;;;;;14.60;99.90;;;;;;5084186;28;19934;-56
2022/07/07 07:05:11;;;;;;;;;;;14.60;99.90;;;;;;5084467;28;19938;-56
2022/07/07 07:07:39;;;;;;;;;;;14.60;99.90;;;;;;5087561;28;19942;-56
2022/07/07 07:10:07;;;;;;;;;;;14.70;99.90;;;;;;5087692;28;20500;-57
2022/07/07 07:12:34;;;;;;;;;;;14.70;99.90;;;;;;5088213;28;20279;-56
2022/07/07 07:15:02;;;;;;;;;;;14.80;99.90;;;;;;5088799;28;19920;-56
2022/07/07 07:17:29;;;;;;;;;;;14.90;99.90;;;;;;5087193;28;19920;-57
2022/07/07 07:19:57;;;;;;;;;;;14.90;99.90;;;;;;5088994;28;19920;-58
2022/07/07 07:22:25;;;;;;;;;;;14.90;99.90;;;;;;5088315;28;19920;-56
2022/07/07 07:24:53;;;;;;;;;;;15.00;99.90;;;;;;5070688;28;19920;-55
2022/07/07 07:27:20;;;;;;;;;;;15.00;99.90;;;;;;5088612;28;19920;-56
2022/07/07 07:29:48;;;;;;;;;;;15.10;99.90;;;;;;5089261;28;19930;-56
2022/07/07 07:32:15;;;;;;;;;;;15.10;99.90;;;;;;5088600;28;19920;-56
2022/07/07 07:34:43;;;;;;;;;;;15.10;99.90;;;;;;5089449;28;19931;-56
2022/07/07 07:37:10;;;;;;;;;;;15.10;99.90;;;;;;5088646;28;19928;-58
2022/07/07 07:39:38;;;;;;;;;;;15.20;99.90;;;;;;5088779;28;19923;-58
2022/07/07 07:42:05;;;;;;;;;;;15.20;99.90;;;;;;5088381;28;19920;-56
2022/07/07 07:47:19;;;;;;;;;;;15.30;99.90;;;;;;5088393;28;19920;-58
2022/07/07 07:49:46;;;;;;;;;;;15.30;99.90;;;;;;5088391;28;19920;-57
2022/07/07 07:52:14;;;;;;;;;;;15.40;99.90;;;;;;5086612;28;19927;-57
2022/07/07 07:54:41;;;;;;;;;;;15.50;99.90;;;;;;5088369;28;20279;-58
2022/07/07 07:57:09;;;;;;;;;;;15.50;99.90;;;;;;5087865;28;20390;-58
2022/07/07 07:59:36;;;;;;;;;;;15.60;99.90;;;;;;5088700;28;19920;-59
2022/07/07 08:02:04;;;;;;;;;;;15.60;99.90;;;;;;5088266;28;20372;-57
2022/07/07 08:04:31;;;;;;;;;;;15.60;99.90;;;;;;5089456;28;19935;-58
2022/07/07 08:06:59;;;;;;;;;;;15.70;99.90;;;;;;5088635;28;19931;-57
2022/07/07 08:09:27;;;;;;;;;;;15.70;99.90;;;;;;5089835;28;19927;-58
2022/07/07 08:11:55;;;;;;;;;;;15.80;99.90;;;;;;5091919;28;19920;-57
2022/07/07 08:14:22;;;;;;;;;;;15.80;99.90;;;;;;5092436;28;19920;-58
2022/07/07 08:16:50;;;;;;;;;;;15.90;99.90;;;;;;5092059;28;19927;-56
2022/07/07 08:19:19;;;;;;;;;;;15.90;99.90;;;;;;5088269;28;19920;-58
2022/07/07 08:21:47;;;;;;;;;;;15.90;99.90;;;;;;5088127;28;19924;-58
2022/07/07 08:24:14;;;;;;;;;;;16.00;99.90;;;;;;5087893;28;19924;-58
2022/07/07 08:26:43;;;;;;;;;;;16.00;99.90;;;;;;5088031;28;19931;-58
2022/07/07 08:29:11;;;;;;;;;;;16.10;99.90;;;;;;5088096;28;19924;-58
2022/07/07 08:31:38;;;;;;;;;;;16.10;99.90;;;;;;5088203;28;19923;-58
2022/07/07 08:34:07;;;;;;;;;;;16.20;99.90;;;;;;5086665;28;19920;-58
2022/07/07 08:36:34;;;;;;;;;;;16.20;99.90;;;;;;5088593;28;19934;-58
2022/07/07 08:39:02;;;;;;;;;;;16.30;99.90;;;;;;5087705;28;19924;-58
2022/07/07 08:41:29;;;;;;;;;;;16.40;99.90;;;;;;5087949;28;19920;-59
2022/07/07 08:43:57;;;;;;;;;;;16.50;99.90;;;;;;5087829;28;19920;-59
2022/07/07 08:46:25;;;;;;;;;;;16.60;99.90;;;;;;5090800;28;19919;-59
2022/07/07 08:48:53;;;;;;;;;;;16.70;99.90;;;;;;5090363;28;19920;-59
2022/07/07 08:51:21;;;;;;;;;;;16.80;99.90;;;;;;5091270;28;19920;-59
2022/07/07 08:53:49;;;;;;;;;;;16.90;99.90;;;;;;5090528;28;19920;-57
2022/07/07 08:56:19;;;;;;;;;;;17.00;99.90;;;;;;5091563;28;19935;-60
2022/07/07 08:58:47;;;;;;;;;;;17.10;99.90;;;;;;5091261;28;19927;-59
2022/07/07 09:01:31;;;;;;;;;;;17.20;99.90;;;;;;5089930;28;20382;-59
2022/07/07 09:03:59;;;;;;;;;;;17.20;99.90;;;;;;5091225;28;19924;-60
2022/07/07 09:06:27;;;;;;;;;;;17.30;99.90;;;;;;5090858;28;19946;-60
2022/07/07 09:08:55;;;;;;;;;;;17.20;99.90;;;;;;5088060;28;19920;-59
2022/07/07 09:11:24;;;;;;;;;;;17.20;99.90;;;;;;5105871;28;19920;-60
2022/07/07 09:13:51;;;;;;;;;;;17.10;99.90;;;;;;5090506;28;19919;-58
2022/07/07 09:16:19;;;;;;;;;;;17.10;99.90;;;;;;5092251;28;19939;-60
2022/07/07 09:18:47;;;;;;;;;;;17.10;99.90;;;;;;5091004;28;19931;-57
2022/07/07 09:21:29;;;;;;;;;;;17.10;99.90;;;;;;5088349;28;19931;-57
2022/07/07 09:23:58;;;;;;;;;;;17.10;99.90;;;;;;5090018;28;19939;-57
2022/07/07 09:26:39;;;;;;;;;;;17.10;99.90;;;;;;5090634;28;20283;-57
2022/07/07 09:29:11;;;;;;;;;;;17.10;99.90;;;;;;5090456;28;19920;-60
2022/07/07 09:31:55;;;;;;;;;;;17.10;99.90;;;;;;5090388;28;20382;-57
2022/07/07 09:34:30;;;;;;;;;;;17.20;99.90;;;;;;5087024;28;20360;-59
2022/07/07 09:39:48;;;;;;;;;;;17.30;99.90;;;;;;5090236;28;19927;-57
2022/07/07 09:42:36;;;;;;;;;;;17.50;99.90;;;;;;5090064;28;19927;-57
2022/07/07 09:45:09;;;;;;;;;;;17.60;99.90;;;;;;5089484;28;20438;-60
2022/07/07 09:47:37;;;;;;;;;;;17.60;99.90;;;;;;5089802;28;20363;-57
2022/07/07 09:50:12;;;;;;;;;;;17.70;99.90;;;;;;5090156;28;19920;-57
2022/07/07 09:52:40;;;;;;;;;;;17.80;99.90;;;;;;5090343;28;20383;-59
2022/07/07 09:55:09;;;;;;;;;;;17.80;99.90;;;;;;5098384;28;19920;-59
2022/07/07 09:57:39;;;;;;;;;;;17.90;99.90;;;;;;5089739;28;20326;-57
2022/07/07 10:00:07;;;;;;;;;;;17.90;99.90;;;;;;5089885;28;20272;-57
2022/07/07 10:02:38;;;;;;;;;;;18.00;99.90;;;;;;5090109;28;19943;-57
2022/07/07 10:05:06;;;;;;;;;;;17.90;99.90;;;;;;5090431;28;20383;-57
2022/07/07 10:07:34;;;;;;;;;;;18.00;99.90;;;;;;5089818;28;20355;-59
2022/07/07 10:10:06;;;;;;;;;;;18.00;99.90;;;;;;5092949;28;19920;-59
2022/07/07 10:12:36;;;;;;;;;;;18.10;99.90;;;;;;5089389;28;19923;-60
2022/07/07 10:15:12;;;;;;;;;;;18.20;99.90;;;;;;5089068;28;20423;-60
2022/07/07 10:17:40;;;;;;;;;;;18.30;99.90;;;;;;5089588;28;20298;-59
2022/07/07 10:20:09;;;;;;;;;;;18.50;99.90;;;;;;5091351;28;19920;-59
2022/07/07 10:22:37;;;;;;;;;;;18.60;99.90;;;;;;5088736;28;20454;-60
2022/07/07 10:25:09;;;;;;;;;;;18.60;99.90;;;;;;5085115;28;19924;-59
2022/07/07 10:27:39;;;;;;;;;;;18.70;99.90;;;;;;5087210;28;19920;-60
2022/07/07 10:30:07;;;;;;;;;;;18.70;99.90;;;;;;5089112;28;19942;-59
2022/07/07 10:32:51;;;;;;;;;;;18.70;99.90;;;;;;5088446;28;19920;-59
2022/07/07 10:35:19;;;;;;;;;;;18.60;99.90;;;;;;5089134;28;20391;-59
2022/07/07 10:37:51;;;;;;;;;;;18.50;99.90;;;;;;5089135;28;19927;-60
2022/07/07 10:40:18;;;;;;;;;;;18.50;99.90;;;;;;5088562;28;19931;-58
2022/07/07 10:42:48;;;;;;;;;;;18.50;99.90;;;;;;5087559;28;19927;-59
2022/07/07 10:45:17;;;;;;;;;;;18.50;99.90;;;;;;5104783;28;20407;-59
2022/07/07 10:47:44;;;;;;;;;;;18.70;99.90;;;;;;5087510;28;19926;-58
2022/07/07 10:50:23;;;;;;;;;;;18.80;99.90;;;;;;5088727;28;19920;-59
2022/07/07 10:52:51;;;;;;;;;;;19.10;99.90;;;;;;5088660;28;20380;-58
2022/07/07 10:55:52;;;;;;;;;;;19.30;99.90;;;;;;5088942;28;19927;-57
2022/07/07 10:58:38;;;;;;;;;;;19.40;99.90;;;;;;5088887;28;19920;-58
2022/07/07 11:01:09;;;;;;;;;;;19.60;99.90;;;;;;5087545;28;19920;-59
2022/07/07 11:03:37;;;;;;;;;;;19.70;99.90;;;;;;5087839;28;19927;-59
2022/07/07 11:06:05;;;;;;;;;;;19.70;99.90;;;;;;5087256;28;19920;-59
2022/07/07 11:08:38;;;;;;;;;;;19.90;99.90;;;;;;5088786;28;19920;-60
2022/07/07 11:11:06;;;;;;;;;;;19.90;99.90;;;;;;5086621;28;20406;-60
2022/07/07 11:13:37;;;;;;;;;;;19.90;99.90;;;;;;5088363;28;19935;-60
2022/07/07 11:16:13;;;;;;;;;;;19.70;99.90;;;;;;5088800;28;19920;-59
2022/07/07 11:18:42;;;;;;;;;;;19.70;99.90;;;;;;5088639;28;19924;-58
2022/07/07 11:21:10;;;;;;;;;;;19.70;99.90;;;;;;5088848;28;19931;-59
2022/07/07 11:24:03;;;;;;;;;;;19.70;99.90;;;;;;5088509;28;19927;-58
2022/07/07 11:26:32;;;;;;;;;;;19.80;99.90;;;;;;5084776;28;19927;-59
2022/07/07 11:29:01;;;;;;;;;;;19.90;99.90;;;;;;5088627;28;20406;-57
2022/07/07 11:31:28;;;;;;;;;;;19.90;99.90;;;;;;5088693;28;19920;-59
2022/07/07 11:33:57;;;;;;;;;;;19.90;99.90;;;;;;5087045;28;20389;-59
2022/07/07 11:36:26;;;;;;;;;;;19.90;99.90;;;;;;5088445;28;20375;-58
2022/07/07 11:39:02;;;;;;;;;;;19.90;99.90;;;;;;5088397;28;19920;-59
2022/07/07 11:41:40;;;;;;;;;;;20.00;99.90;;;;;;5088302;28;19931;-58
2022/07/07 11:44:17;;;;;;;;;;;20.10;99.90;;;;;;5090991;28;19927;-59
2022/07/07 11:46:46;;;;;;;;;;;20.10;99.90;;;;;;5092638;28;19936;-59
2022/07/07 11:49:15;;;;;;;;;;;20.00;99.90;;;;;;5090832;28;19920;-59
2022/07/07 11:51:44;;;;;;;;;;;19.90;99.90;;;;;;5092236;28;20394;-59
2022/07/07 11:54:12;;;;;;;;;;;19.80;99.90;;;;;;5091655;28;19931;-59
2022/07/07 11:56:39;;;;;;;;;;;19.70;99.90;;;;;;5092139;28;19927;-59
2022/07/07 11:59:07;;;;;;;;;;;19.70;99.90;;;;;;5090536;28;19935;-59
2022/07/07 12:01:37;;;;;;;;;;;19.80;99.90;;;;;;5092054;28;19920;-59
2022/07/07 12:04:17;;;;;;;;;;;19.80;99.90;;;;;;5091956;28;19927;-59
2022/07/07 12:06:45;;;;;;;;;;;19.70;99.90;;;;;;5092102;28;19927;-59
2022/07/07 12:09:13;;;;;;;;;;;19.60;99.90;;;;;;5090321;28;19920;-59
2022/07/07 12:11:41;;;;;;;;;;;19.60;99.90;;;;;;5090723;28;20371;-59
2022/07/07 12:14:11;;;;;;;;;;;19.70;99.90;;;;;;5091559;28;20283;-58
2022/07/07 12:16:43;;;;;;;;;;;19.80;99.90;;;;;;5091981;28;19931;-59
2022/07/07 12:19:12;;;;;;;;;;;19.80;99.90;;;;;;5091830;28;19934;-59
2022/07/07 12:21:44;;;;;;;;;;;19.70;99.90;;;;;;5091837;28;19931;-59
2022/07/07 12:24:13;;;;;;;;;;;19.70;99.90;;;;;;5091333;28;19920;-59
2022/07/07 12:26:42;;;;;;;;;;;20.00;99.90;;;;;;5091917;28;19919;-57
2022/07/07 12:29:10;;;;;;;;;;;20.20;99.90;;;;;;5088965;28;19935;-57
2022/07/07 12:31:38;;;;;;;;;;;20.30;99.90;;;;;;5089228;28;19920;-57
2022/07/07 12:34:11;;;;;;;;;;;20.20;99.90;;;;;;5087499;28;19919;-57
2022/07/07 12:36:40;;;;;;;;;;;20.10;99.90;;;;;;5088844;28;19931;-57
2022/07/07 12:39:08;;;;;;;;;;;20.10;99.90;;;;;;5088734;28;19924;-58
2022/07/07 12:41:38;;;;;;;;;;;20.50;99.90;;;;;;5088745;28;19931;-58
2022/07/07 12:44:13;;;;;;;;;;;21.10;99.90;;;;;;5088258;28;19920;-58
2022/07/07 12:46:42;;;;;;;;;;;21.80;99.90;;;;;;5086414;28;19931;-57
2022/07/07 12:49:10;;;;;;;;;;;22.20;99.90;;;;;;5087231;28;19924;-58
2022/07/07 12:51:41;;;;;;;;;;;22.30;99.90;;;;;;5085302;28;19931;-57
2022/07/07 12:54:28;;;;;;;;;;;22.10;99.90;;;;;;5087464;28;19927;-57
2022/07/07 12:57:05;;;;;;;;;;;21.80;99.90;;;;;;5088673;28;19920;-58
2022/07/07 12:59:41;;;;;;;;;;;21.50;99.90;;;;;;5085970;28;19934;-57
2022/07/07 13:02:10;;;;;;;;;;;21.40;99.90;;;;;;5087908;28;19920;-58
2022/07/07 13:04:40;;;;;;;;;;;21.30;99.90;;;;;;5088006;28;19920;-58
2022/07/07 13:07:08;;;;;;;;;;;21.60;99.90;;;;;;5088336;28;19920;-57
2022/07/07 13:09:36;;;;;;;;;;;22.10;99.90;;;;;;5087774;28;19931;-57
2022/07/07 13:12:04;;;;;;;;;;;22.40;99.90;;;;;;5088523;28;19931;-57
2022/07/07 13:14:32;;;;;;;;;;;22.50;99.90;;;;;;5088000;28;20569;-57
2022/07/07 13:17:00;;;;;;;;;;;22.70;99.90;;;;;;5088109;28;19920;-57
2022/07/07 13:19:28;;;;;;;;;;;22.80;99.90;;;;;;5087826;28;19920;-58
2022/07/07 13:21:56;;;;;;;;;;;23.00;99.90;;;;;;5087525;28;19927;-58
2022/07/07 13:24:24;;;;;;;;;;;23.30;99.70;;;;;;5087302;28;20275;-57
2022/07/07 13:26:51;;;;;;;;;;;23.40;98.60;;;;;;5087162;28;19936;-58
2022/07/07 13:29:19;;;;;;;;;;;23.60;98.90;;;;;;5087232;28;19923;-59
2022/07/07 13:31:47;;;;;;;;;;;23.70;98.30;;;;;;5085882;28;19924;-57
2022/07/07 13:34:16;;;;;;;;;;;23.70;98.10;;;;;;5086956;28;19924;-59
2022/07/07 13:36:52;;;;;;;;;;;23.70;98.90;;;;;;5086317;28;19931;-58
2022/07/07 13:39:20;;;;;;;;;;;23.90;98.50;;;;;;5087466;28;19920;-58
2022/07/07 13:41:48;;;;;;;;;;;24.00;97.50;;;;;;5087668;28;19924;-58
2022/07/07 13:44:36;;;;;;;;;;;24.00;97.30;;;;;;5089841;28;19927;-58
2022/07/07 13:47:04;;;;;;;;;;;24.20;96.40;;;;;;5070709;28;20557;-57
2022/07/07 13:49:31;;;;;;;;;;;24.40;96.50;;;;;;5089310;28;19924;-57
2022/07/07 13:51:59;;;;;;;;;;;24.60;95.00;;;;;;5088908;28;19954;-59
2022/07/07 13:54:42;;;;;;;;;;;24.70;94.90;;;;;;5088539;28;20441;-58
2022/07/07 13:57:10;;;;;;;;;;;24.80;95.00;;;;;;5089829;28;20279;-58
2022/07/07 13:59:39;;;;;;;;;;;25.00;94.10;;;;;;5089561;28;19943;-58
2022/07/07 14:02:07;;;;;;;;;;;24.90;94.00;;;;;;5088960;28;19942;-57
2022/07/07 14:04:35;;;;;;;;;;;24.90;94.50;;;;;;5087533;28;19920;-57
2022/07/07 14:07:03;;;;;;;;;;;25.20;93.20;;;;;;5087210;28;19931;-57
2022/07/07 14:09:31;;;;;;;;;;;25.40;93.60;;;;;;5086435;28;20299;-57
2022/07/07 14:11:59;;;;;;;;;;;25.80;92.70;;;;;;5087385;28;19927;-57
2022/07/07 14:14:27;;;;;;;;;;;25.90;91.50;;;;;;5124292;27;19920;-57
2022/07/07 14:16:54;;;;;;;;;;;26.00;91.80;;;;;;5105525;28;19920;-58
2022/07/07 14:19:22;;;;;;;;;;;26.30;91.70;;;;;;5099283;28;19920;-58
2022/07/07 14:21:50;;;;;;;;;;;26.50;91.20;;;;;;5108074;28;19920;-57
2022/07/07 14:24:17;;;;;;;;;;;26.70;90.10;;;;;;5091285;28;19920;-57
2022/07/07 14:26:45;;;;;;;;;;;26.70;88.90;;;;;;5098472;28;20287;-57
2022/07/07 14:29:12;;;;;;;;;;;26.70;90.10;;;;;;5094463;28;20010;-58
2022/07/07 14:31:40;;;;;;;;;;;26.60;87.80;;;;;;5108920;28;19919;-58
2022/07/07 14:34:07;;;;;;;;;;;26.30;88.10;;;;;;5100425;28;19926;-58